sensor_id;sensor_type;location;lat;lon;timestamp;P1;durP1;ratioP1;P2;durP2;ratioP2
56201;SDS011;42117;50.360;3.508;2022-07-05T00:01:00;6.50;;;5.88;;
56201;SDS011;42117;50.360;3.508;2022-07-05T00:03:27;6.53;;;5.90;;
56201;SDS011;42117;50.360;3.508;2022-07-05T00:05:53;7.05;;;6.53;;
56201;SDS011;42117;50.360;3.508;2022-07-05T00:08:19;6.68;;;6.07;;
56201;SDS011;42117;50.360;3.508;2022-07-05T00:10:46;9.57;;;6.55;;
56201;SDS011;42117;50.360;3.508;2022-07-05T00:13:12;8.80;;;6.57;;
56201;SDS011;42117;50.360;3.508;2022-07-05T00:15:38;7.70;;;6.95;;
56201;SDS011;42117;50.360;3.508;2022-07-05T00:18:04;6.75;;;6.28;;
56201;SDS011;42117;50.360;3.508;2022-07-05T00:20:31;6.45;;;5.93;;
56201;SDS011;42117;50.360;3.508;2022-07-05T00:22:57;7.07;;;6.50;;
56201;SDS011;42117;50.360;3.508;2022-07-05T00:25:23;6.85;;;6.45;;
56201;SDS011;42117;50.360;3.508;2022-07-05T00:27:49;7.28;;;6.88;;
56201;SDS011;42117;50.360;3.508;2022-07-05T00:30:15;6.93;;;6.53;;
56201;SDS011;42117;50.360;3.508;2022-07-05T00:32:41;7.38;;;6.72;;
56201;SDS011;42117;50.360;3.508;2022-07-05T00:35:07;9.25;;;7.10;;
56201;SDS011;42117;50.360;3.508;2022-07-05T00:37:33;8.73;;;7.65;;
56201;SDS011;42117;50.360;3.508;2022-07-05T00:39:59;6.90;;;6.60;;
56201;SDS011;42117;50.360;3.508;2022-07-05T00:42:26;8.65;;;8.10;;
56201;SDS011;42117;50.360;3.508;2022-07-05T00:44:52;8.52;;;7.93;;
56201;SDS011;42117;50.360;3.508;2022-07-05T00:47:18;7.10;;;6.60;;
56201;SDS011;42117;50.360;3.508;2022-07-05T00:49:44;8.55;;;7.38;;
56201;SDS011;42117;50.360;3.508;2022-07-05T00:52:11;9.32;;;7.43;;
56201;SDS011;42117;50.360;3.508;2022-07-05T00:54:37;8.35;;;7.53;;
56201;SDS011;42117;50.360;3.508;2022-07-05T00:57:04;7.78;;;7.35;;
56201;SDS011;42117;50.360;3.508;2022-07-05T00:59:30;8.30;;;7.63;;
56201;SDS011;42117;50.360;3.508;2022-07-05T01:01:57;7.60;;;7.18;;
56201;SDS011;42117;50.360;3.508;2022-07-05T01:04:23;9.43;;;8.57;;
56201;SDS011;42117;50.360;3.508;2022-07-05T01:06:50;9.00;;;8.10;;
56201;SDS011;42117;50.360;3.508;2022-07-05T01:09:16;9.02;;;8.00;;
56201;SDS011;42117;50.360;3.508;2022-07-05T01:11:43;8.85;;;8.13;;
56201;SDS011;42117;50.360;3.508;2022-07-05T01:14:11;8.00;;;7.28;;
56201;SDS011;42117;50.360;3.508;2022-07-05T01:16:38;9.18;;;8.48;;
56201;SDS011;42117;50.360;3.508;2022-07-05T01:19:05;9.88;;;8.75;;
56201;SDS011;42117;50.360;3.508;2022-07-05T01:21:32;8.65;;;8.05;;
56201;SDS011;42117;50.360;3.508;2022-07-05T01:23:59;8.43;;;7.90;;
56201;SDS011;42117;50.360;3.508;2022-07-05T01:26:25;8.40;;;7.85;;
56201;SDS011;42117;50.360;3.508;2022-07-05T01:28:51;8.23;;;7.50;;
56201;SDS011;42117;50.360;3.508;2022-07-05T01:31:17;7.57;;;7.18;;
56201;SDS011;42117;50.360;3.508;2022-07-05T01:33:43;8.73;;;8.15;;
56201;SDS011;42117;50.360;3.508;2022-07-05T01:36:10;8.32;;;7.57;;
56201;SDS011;42117;50.360;3.508;2022-07-05T01:38:36;8.82;;;8.10;;
56201;SDS011;42117;50.360;3.508;2022-07-05T01:41:02;7.65;;;7.28;;
56201;SDS011;42117;50.360;3.508;2022-07-05T01:43:28;7.90;;;6.60;;
56201;SDS011;42117;50.360;3.508;2022-07-05T01:45:54;8.68;;;8.10;;
56201;SDS011;42117;50.360;3.508;2022-07-05T01:48:22;8.07;;;7.22;;
56201;SDS011;42117;50.360;3.508;2022-07-05T01:50:49;7.70;;;7.07;;
56201;SDS011;42117;50.360;3.508;2022-07-05T01:53:18;9.70;;;8.88;;
56201;SDS011;42117;50.360;3.508;2022-07-05T01:55:45;8.82;;;8.23;;
56201;SDS011;42117;50.360;3.508;2022-07-05T01:58:11;11.82;;;7.90;;
56201;SDS011;42117;50.360;3.508;2022-07-05T02:00:47;8.65;;;7.50;;
56201;SDS011;42117;50.360;3.508;2022-07-05T02:03:14;11.68;;;7.65;;
56201;SDS011;42117;50.360;3.508;2022-07-05T02:05:40;13.23;;;8.52;;
56201;SDS011;42117;50.360;3.508;2022-07-05T02:08:07;8.02;;;7.45;;
56201;SDS011;42117;50.360;3.508;2022-07-05T02:10:36;7.53;;;7.13;;
56201;SDS011;42117;50.360;3.508;2022-07-05T02:13:03;7.40;;;6.93;;
56201;SDS011;42117;50.360;3.508;2022-07-05T02:15:30;7.95;;;7.13;;
56201;SDS011;42117;50.360;3.508;2022-07-05T02:17:56;7.53;;;7.03;;
56201;SDS011;42117;50.360;3.508;2022-07-05T02:20:22;10.25;;;6.75;;
56201;SDS011;42117;50.360;3.508;2022-07-05T02:22:48;7.15;;;6.70;;
56201;SDS011;42117;50.360;3.508;2022-07-05T02:25:14;8.57;;;8.07;;
56201;SDS011;42117;50.360;3.508;2022-07-05T02:27:40;9.95;;;9.35;;
56201;SDS011;42117;50.360;3.508;2022-07-05T02:30:06;9.95;;;9.27;;
56201;SDS011;42117;50.360;3.508;2022-07-05T02:32:32;9.65;;;9.00;;
56201;SDS011;42117;50.360;3.508;2022-07-05T02:34:58;10.35;;;9.70;;
56201;SDS011;42117;50.360;3.508;2022-07-05T02:37:24;10.02;;;9.23;;
56201;SDS011;42117;50.360;3.508;2022-07-05T02:39:52;7.22;;;6.70;;
56201;SDS011;42117;50.360;3.508;2022-07-05T02:42:18;9.77;;;9.25;;
56201;SDS011;42117;50.360;3.508;2022-07-05T02:44:44;11.18;;;10.05;;
56201;SDS011;42117;50.360;3.508;2022-07-05T02:47:10;9.75;;;8.82;;
56201;SDS011;42117;50.360;3.508;2022-07-05T02:49:36;10.73;;;8.43;;
56201;SDS011;42117;50.360;3.508;2022-07-05T02:52:02;13.27;;;8.70;;
56201;SDS011;42117;50.360;3.508;2022-07-05T02:54:28;9.52;;;8.73;;
56201;SDS011;42117;50.360;3.508;2022-07-05T02:56:54;9.00;;;8.32;;
56201;SDS011;42117;50.360;3.508;2022-07-05T02:59:20;8.85;;;8.10;;
56201;SDS011;42117;50.360;3.508;2022-07-05T03:01:46;8.75;;;7.95;;
56201;SDS011;42117;50.360;3.508;2022-07-05T03:04:12;8.95;;;7.82;;
56201;SDS011;42117;50.360;3.508;2022-07-05T03:06:38;11.48;;;8.52;;
56201;SDS011;42117;50.360;3.508;2022-07-05T03:09:04;9.68;;;9.02;;
56201;SDS011;42117;50.360;3.508;2022-07-05T03:11:30;10.10;;;9.40;;
56201;SDS011;42117;50.360;3.508;2022-07-05T03:13:56;10.63;;;9.82;;
56201;SDS011;42117;50.360;3.508;2022-07-05T03:16:22;10.77;;;9.77;;
56201;SDS011;42117;50.360;3.508;2022-07-05T03:18:49;11.13;;;8.10;;
56201;SDS011;42117;50.360;3.508;2022-07-05T03:21:15;9.50;;;8.80;;
56201;SDS011;42117;50.360;3.508;2022-07-05T03:23:41;10.85;;;9.80;;
56201;SDS011;42117;50.360;3.508;2022-07-05T03:26:07;9.43;;;8.63;;
56201;SDS011;42117;50.360;3.508;2022-07-05T03:28:33;8.85;;;8.00;;
56201;SDS011;42117;50.360;3.508;2022-07-05T03:30:59;8.82;;;8.00;;
56201;SDS011;42117;50.360;3.508;2022-07-05T03:33:25;10.40;;;7.15;;
56201;SDS011;42117;50.360;3.508;2022-07-05T03:35:51;7.95;;;7.18;;
56201;SDS011;42117;50.360;3.508;2022-07-05T03:38:17;7.38;;;6.97;;
56201;SDS011;42117;50.360;3.508;2022-07-05T03:40:43;7.03;;;6.20;;
56201;SDS011;42117;50.360;3.508;2022-07-05T03:43:09;8.18;;;7.78;;
56201;SDS011;42117;50.360;3.508;2022-07-05T03:45:35;11.05;;;7.55;;
56201;SDS011;42117;50.360;3.508;2022-07-05T03:48:01;9.65;;;6.00;;
56201;SDS011;42117;50.360;3.508;2022-07-05T03:50:28;6.82;;;5.97;;
56201;SDS011;42117;50.360;3.508;2022-07-05T03:52:54;7.75;;;7.05;;
56201;SDS011;42117;50.360;3.508;2022-07-05T03:55:20;7.10;;;6.60;;
56201;SDS011;42117;50.360;3.508;2022-07-05T03:57:46;6.75;;;6.45;;
56201;SDS011;42117;50.360;3.508;2022-07-05T04:00:12;6.93;;;6.32;;
56201;SDS011;42117;50.360;3.508;2022-07-05T04:02:39;6.80;;;6.20;;
56201;SDS011;42117;50.360;3.508;2022-07-05T04:05:05;7.18;;;6.78;;
56201;SDS011;42117;50.360;3.508;2022-07-05T04:07:31;6.93;;;6.53;;
56201;SDS011;42117;50.360;3.508;2022-07-05T04:09:58;10.73;;;6.40;;
56201;SDS011;42117;50.360;3.508;2022-07-05T04:12:24;9.75;;;8.95;;
56201;SDS011;42117;50.360;3.508;2022-07-05T04:14:50;15.98;;;7.25;;
56201;SDS011;42117;50.360;3.508;2022-07-05T04:17:16;14.50;;;7.75;;
56201;SDS011;42117;50.360;3.508;2022-07-05T04:19:42;10.90;;;7.57;;
56201;SDS011;42117;50.360;3.508;2022-07-05T04:22:08;8.00;;;7.22;;
56201;SDS011;42117;50.360;3.508;2022-07-05T04:24:35;12.20;;;7.38;;
56201;SDS011;42117;50.360;3.508;2022-07-05T04:27:21;12.18;;;8.85;;
56201;SDS011;42117;50.360;3.508;2022-07-05T04:29:47;7.97;;;7.30;;
56201;SDS011;42117;50.360;3.508;2022-07-05T04:32:13;9.05;;;6.88;;
56201;SDS011;42117;50.360;3.508;2022-07-05T04:34:39;8.13;;;7.13;;
56201;SDS011;42117;50.360;3.508;2022-07-05T04:37:05;8.55;;;7.00;;
56201;SDS011;42117;50.360;3.508;2022-07-05T04:39:31;7.78;;;7.22;;
56201;SDS011;42117;50.360;3.508;2022-07-05T04:41:57;7.88;;;7.05;;
56201;SDS011;42117;50.360;3.508;2022-07-05T04:44:23;11.75;;;7.55;;
56201;SDS011;42117;50.360;3.508;2022-07-05T04:46:49;9.95;;;7.45;;
56201;SDS011;42117;50.360;3.508;2022-07-05T04:49:15;7.20;;;6.78;;
56201;SDS011;42117;50.360;3.508;2022-07-05T04:51:41;7.13;;;6.68;;
56201;SDS011;42117;50.360;3.508;2022-07-05T04:54:07;8.70;;;7.90;;
56201;SDS011;42117;50.360;3.508;2022-07-05T04:56:33;13.00;;;6.78;;
56201;SDS011;42117;50.360;3.508;2022-07-05T04:58:59;9.75;;;7.30;;
56201;SDS011;42117;50.360;3.508;2022-07-05T05:01:25;9.82;;;7.13;;
56201;SDS011;42117;50.360;3.508;2022-07-05T05:03:51;9.35;;;7.13;;
56201;SDS011;42117;50.360;3.508;2022-07-05T05:06:17;9.30;;;6.32;;
56201;SDS011;42117;50.360;3.508;2022-07-05T05:08:43;6.55;;;6.05;;
56201;SDS011;42117;50.360;3.508;2022-07-05T05:11:09;7.32;;;6.05;;
56201;SDS011;42117;50.360;3.508;2022-07-05T05:13:35;16.58;;;7.60;;
56201;SDS011;42117;50.360;3.508;2022-07-05T05:16:01;8.77;;;6.20;;
56201;SDS011;42117;50.360;3.508;2022-07-05T05:18:27;10.48;;;7.13;;
56201;SDS011;42117;50.360;3.508;2022-07-05T05:20:54;8.45;;;6.82;;
56201;SDS011;42117;50.360;3.508;2022-07-05T05:23:20;7.22;;;6.82;;
56201;SDS011;42117;50.360;3.508;2022-07-05T05:25:47;7.43;;;6.93;;
56201;SDS011;42117;50.360;3.508;2022-07-05T05:28:13;13.25;;;8.05;;
56201;SDS011;42117;50.360;3.508;2022-07-05T05:30:39;12.70;;;7.85;;
56201;SDS011;42117;50.360;3.508;2022-07-05T05:33:05;7.97;;;7.38;;
56201;SDS011;42117;50.360;3.508;2022-07-05T05:35:31;12.13;;;6.57;;
56201;SDS011;42117;50.360;3.508;2022-07-05T05:37:57;7.38;;;6.15;;
56201;SDS011;42117;50.360;3.508;2022-07-05T05:40:23;9.40;;;7.63;;
56201;SDS011;42117;50.360;3.508;2022-07-05T05:42:50;10.18;;;8.07;;
56201;SDS011;42117;50.360;3.508;2022-07-05T05:45:17;12.10;;;7.82;;
56201;SDS011;42117;50.360;3.508;2022-07-05T05:47:47;13.63;;;7.80;;
56201;SDS011;42117;50.360;3.508;2022-07-05T05:50:14;7.70;;;6.80;;
56201;SDS011;42117;50.360;3.508;2022-07-05T05:52:40;8.50;;;7.82;;
56201;SDS011;42117;50.360;3.508;2022-07-05T05:55:06;7.90;;;6.30;;
56201;SDS011;42117;50.360;3.508;2022-07-05T05:57:33;8.05;;;6.60;;
56201;SDS011;42117;50.360;3.508;2022-07-05T06:00:00;9.00;;;6.45;;
56201;SDS011;42117;50.360;3.508;2022-07-05T06:02:26;7.43;;;6.45;;
56201;SDS011;42117;50.360;3.508;2022-07-05T06:04:52;9.43;;;7.63;;
56201;SDS011;42117;50.360;3.508;2022-07-05T06:07:18;6.20;;;5.60;;
56201;SDS011;42117;50.360;3.508;2022-07-05T06:09:44;5.93;;;5.38;;
56201;SDS011;42117;50.360;3.508;2022-07-05T06:12:10;8.40;;;5.00;;
56201;SDS011;42117;50.360;3.508;2022-07-05T06:14:36;7.82;;;6.63;;
56201;SDS011;42117;50.360;3.508;2022-07-05T06:17:02;8.32;;;6.55;;
56201;SDS011;42117;50.360;3.508;2022-07-05T06:19:28;13.27;;;6.38;;
56201;SDS011;42117;50.360;3.508;2022-07-05T06:21:54;6.25;;;5.75;;
56201;SDS011;42117;50.360;3.508;2022-07-05T06:24:20;9.57;;;6.28;;
56201;SDS011;42117;50.360;3.508;2022-07-05T06:26:46;9.25;;;6.90;;
56201;SDS011;42117;50.360;3.508;2022-07-05T06:29:12;9.10;;;6.20;;
56201;SDS011;42117;50.360;3.508;2022-07-05T06:31:38;6.30;;;5.82;;
56201;SDS011;42117;50.360;3.508;2022-07-05T06:34:04;16.15;;;5.68;;
56201;SDS011;42117;50.360;3.508;2022-07-05T06:36:30;14.07;;;6.07;;
56201;SDS011;42117;50.360;3.508;2022-07-05T06:38:56;7.25;;;5.88;;
56201;SDS011;42117;50.360;3.508;2022-07-05T06:41:22;8.55;;;6.32;;
56201;SDS011;42117;50.360;3.508;2022-07-05T06:43:48;12.38;;;5.60;;
56201;SDS011;42117;50.360;3.508;2022-07-05T06:46:14;18.65;;;5.57;;
56201;SDS011;42117;50.360;3.508;2022-07-05T06:48:40;6.45;;;5.43;;
56201;SDS011;42117;50.360;3.508;2022-07-05T06:51:06;11.77;;;5.65;;
56201;SDS011;42117;50.360;3.508;2022-07-05T06:53:32;15.45;;;5.97;;
56201;SDS011;42117;50.360;3.508;2022-07-05T06:55:58;11.38;;;5.75;;
56201;SDS011;42117;50.360;3.508;2022-07-05T06:58:24;7.70;;;5.60;;
56201;SDS011;42117;50.360;3.508;2022-07-05T07:00:50;5.50;;;4.97;;
56201;SDS011;42117;50.360;3.508;2022-07-05T07:03:16;44.83;;;7.90;;
56201;SDS011;42117;50.360;3.508;2022-07-05T07:05:42;37.78;;;7.03;;
56201;SDS011;42117;50.360;3.508;2022-07-05T07:08:08;8.25;;;6.03;;
56201;SDS011;42117;50.360;3.508;2022-07-05T07:10:53;9.15;;;6.32;;
56201;SDS011;42117;50.360;3.508;2022-07-05T07:13:19;30.02;;;6.10;;
56201;SDS011;42117;50.360;3.508;2022-07-05T07:15:45;7.80;;;5.80;;
56201;SDS011;42117;50.360;3.508;2022-07-05T07:18:13;14.45;;;6.30;;
56201;SDS011;42117;50.360;3.508;2022-07-05T07:20:39;8.80;;;6.00;;
56201;SDS011;42117;50.360;3.508;2022-07-05T07:23:05;6.78;;;5.82;;
56201;SDS011;42117;50.360;3.508;2022-07-05T07:25:31;13.70;;;7.35;;
56201;SDS011;42117;50.360;3.508;2022-07-05T07:27:57;9.52;;;6.30;;
56201;SDS011;42117;50.360;3.508;2022-07-05T07:30:27;15.70;;;5.88;;
56201;SDS011;42117;50.360;3.508;2022-07-05T07:32:53;49.95;;;9.27;;
56201;SDS011;42117;50.360;3.508;2022-07-05T07:35:19;10.63;;;6.53;;
56201;SDS011;42117;50.360;3.508;2022-07-05T07:37:46;13.50;;;7.03;;
56201;SDS011;42117;50.360;3.508;2022-07-05T07:40:12;8.15;;;5.53;;
56201;SDS011;42117;50.360;3.508;2022-07-05T07:42:38;15.73;;;5.95;;
56201;SDS011;42117;50.360;3.508;2022-07-05T07:45:04;11.60;;;5.38;;
56201;SDS011;42117;50.360;3.508;2022-07-05T07:47:35;10.48;;;5.97;;
56201;SDS011;42117;50.360;3.508;2022-07-05T07:50:02;47.17;;;9.07;;
56201;SDS011;42117;50.360;3.508;2022-07-05T07:52:28;8.45;;;5.30;;
56201;SDS011;42117;50.360;3.508;2022-07-05T07:54:55;11.63;;;4.63;;
56201;SDS011;42117;50.360;3.508;2022-07-05T07:57:21;7.13;;;4.57;;
56201;SDS011;42117;50.360;3.508;2022-07-05T07:59:47;11.02;;;5.97;;
56201;SDS011;42117;50.360;3.508;2022-07-05T08:02:13;20.15;;;5.60;;
56201;SDS011;42117;50.360;3.508;2022-07-05T08:04:39;10.40;;;5.38;;
56201;SDS011;42117;50.360;3.508;2022-07-05T08:07:05;12.63;;;4.97;;
56201;SDS011;42117;50.360;3.508;2022-07-05T08:09:31;11.50;;;6.43;;
56201;SDS011;42117;50.360;3.508;2022-07-05T08:11:57;6.55;;;4.35;;
56201;SDS011;42117;50.360;3.508;2022-07-05T08:14:24;5.93;;;4.63;;
56201;SDS011;42117;50.360;3.508;2022-07-05T08:16:50;10.27;;;4.75;;
56201;SDS011;42117;50.360;3.508;2022-07-05T08:19:17;16.15;;;5.25;;
56201;SDS011;42117;50.360;3.508;2022-07-05T08:22:02;8.18;;;4.30;;
56201;SDS011;42117;50.360;3.508;2022-07-05T08:24:28;5.38;;;4.90;;
56201;SDS011;42117;50.360;3.508;2022-07-05T08:26:54;6.57;;;4.68;;
56201;SDS011;42117;50.360;3.508;2022-07-05T08:29:20;12.05;;;4.80;;
56201;SDS011;42117;50.360;3.508;2022-07-05T08:31:47;8.05;;;4.95;;
56201;SDS011;42117;50.360;3.508;2022-07-05T08:34:14;7.53;;;5.00;;
56201;SDS011;42117;50.360;3.508;2022-07-05T08:36:40;9.00;;;5.72;;
56201;SDS011;42117;50.360;3.508;2022-07-05T08:39:07;8.57;;;4.35;;
56201;SDS011;42117;50.360;3.508;2022-07-05T08:41:36;9.32;;;5.53;;
56201;SDS011;42117;50.360;3.508;2022-07-05T08:44:03;6.35;;;5.05;;
56201;SDS011;42117;50.360;3.508;2022-07-05T08:46:30;14.52;;;5.60;;
56201;SDS011;42117;50.360;3.508;2022-07-05T08:48:57;49.78;;;7.30;;
56201;SDS011;42117;50.360;3.508;2022-07-05T08:51:24;12.45;;;4.97;;
56201;SDS011;42117;50.360;3.508;2022-07-05T08:53:51;6.07;;;4.40;;
56201;SDS011;42117;50.360;3.508;2022-07-05T08:56:18;6.75;;;5.00;;
56201;SDS011;42117;50.360;3.508;2022-07-05T08:58:44;4.35;;;3.95;;
56201;SDS011;42117;50.360;3.508;2022-07-05T09:01:10;5.65;;;4.07;;
56201;SDS011;42117;50.360;3.508;2022-07-05T09:03:46;7.38;;;4.15;;
56201;SDS011;42117;50.360;3.508;2022-07-05T09:06:13;7.97;;;4.18;;
56201;SDS011;42117;50.360;3.508;2022-07-05T09:08:42;15.60;;;4.68;;
56201;SDS011;42117;50.360;3.508;2022-07-05T09:11:09;7.15;;;4.93;;
56201;SDS011;42117;50.360;3.508;2022-07-05T09:13:36;12.05;;;4.68;;
56201;SDS011;42117;50.360;3.508;2022-07-05T09:16:02;5.95;;;3.70;;
56201;SDS011;42117;50.360;3.508;2022-07-05T09:21:16;6.35;;;4.38;;
56201;SDS011;42117;50.360;3.508;2022-07-05T09:23:43;5.35;;;3.78;;
56201;SDS011;42117;50.360;3.508;2022-07-05T09:26:09;5.03;;;4.32;;
56201;SDS011;42117;50.360;3.508;2022-07-05T09:28:35;6.68;;;3.92;;
56201;SDS011;42117;50.360;3.508;2022-07-05T09:31:01;7.22;;;4.32;;
56201;SDS011;42117;50.360;3.508;2022-07-05T09:33:27;4.15;;;3.78;;
56201;SDS011;42117;50.360;3.508;2022-07-05T09:35:56;4.43;;;3.90;;
56201;SDS011;42117;50.360;3.508;2022-07-05T09:38:23;10.60;;;3.83;;
56201;SDS011;42117;50.360;3.508;2022-07-05T09:43:17;7.18;;;3.20;;
56201;SDS011;42117;50.360;3.508;2022-07-05T09:46:16;7.10;;;3.70;;
56201;SDS011;42117;50.360;3.508;2022-07-05T09:48:35;4.18;;;3.75;;
56201;SDS011;42117;50.360;3.508;2022-07-05T09:51:08;4.57;;;3.15;;
56201;SDS011;42117;50.360;3.508;2022-07-05T09:53:47;4.82;;;2.63;;
56201;SDS011;42117;50.360;3.508;2022-07-05T09:56:13;5.57;;;3.10;;
56201;SDS011;42117;50.360;3.508;2022-07-05T09:58:39;3.20;;;2.80;;
56201;SDS011;42117;50.360;3.508;2022-07-05T10:01:22;5.07;;;3.13;;
56201;SDS011;42117;50.360;3.508;2022-07-05T10:03:55;4.07;;;3.70;;
56201;SDS011;42117;50.360;3.508;2022-07-05T10:06:25;6.20;;;4.07;;
56201;SDS011;42117;50.360;3.508;2022-07-05T10:08:52;5.22;;;2.92;;
56201;SDS011;42117;50.360;3.508;2022-07-05T10:11:18;8.27;;;3.60;;
56201;SDS011;42117;50.360;3.508;2022-07-05T10:13:48;10.25;;;3.97;;
56201;SDS011;42117;50.360;3.508;2022-07-05T10:16:18;5.63;;;3.53;;
56201;SDS011;42117;50.360;3.508;2022-07-05T10:18:47;4.38;;;3.35;;
56201;SDS011;42117;50.360;3.508;2022-07-05T10:21:15;3.10;;;3.00;;
56201;SDS011;42117;50.360;3.508;2022-07-05T10:23:44;3.85;;;2.60;;
56201;SDS011;42117;50.360;3.508;2022-07-05T10:26:11;9.35;;;3.40;;
56201;SDS011;42117;50.360;3.508;2022-07-05T10:28:38;10.35;;;3.35;;
56201;SDS011;42117;50.360;3.508;2022-07-05T10:31:05;4.57;;;2.90;;
56201;SDS011;42117;50.360;3.508;2022-07-05T10:33:33;5.50;;;3.50;;
56201;SDS011;42117;50.360;3.508;2022-07-05T10:36:00;9.02;;;2.65;;
56201;SDS011;42117;50.360;3.508;2022-07-05T10:38:26;3.83;;;2.80;;
56201;SDS011;42117;50.360;3.508;2022-07-05T10:40:53;3.03;;;2.83;;
56201;SDS011;42117;50.360;3.508;2022-07-05T10:43:23;2.63;;;2.53;;
56201;SDS011;42117;50.360;3.508;2022-07-05T10:45:50;3.42;;;3.03;;
56201;SDS011;42117;50.360;3.508;2022-07-05T10:48:22;3.55;;;3.25;;
56201;SDS011;42117;50.360;3.508;2022-07-05T10:50:50;7.00;;;2.88;;
56201;SDS011;42117;50.360;3.508;2022-07-05T10:53:23;3.28;;;3.08;;
56201;SDS011;42117;50.360;3.508;2022-07-05T10:55:58;3.42;;;2.45;;
56201;SDS011;42117;50.360;3.508;2022-07-05T11:06:07;15.70;;;3.42;;
56201;SDS011;42117;50.360;3.508;2022-07-05T11:11:22;10.48;;;2.80;;
56201;SDS011;42117;50.360;3.508;2022-07-05T11:13:49;2.55;;;2.20;;
56201;SDS011;42117;50.360;3.508;2022-07-05T11:18:48;2.83;;;2.63;;
56201;SDS011;42117;50.360;3.508;2022-07-05T11:21:19;3.15;;;2.63;;
56201;SDS011;42117;50.360;3.508;2022-07-05T11:23:45;3.13;;;3.03;;
56201;SDS011;42117;50.360;3.508;2022-07-05T11:26:12;3.83;;;3.53;;
56201;SDS011;42117;50.360;3.508;2022-07-05T11:28:42;6.85;;;3.35;;
56201;SDS011;42117;50.360;3.508;2022-07-05T11:31:11;7.60;;;2.97;;
56201;SDS011;42117;50.360;3.508;2022-07-05T11:33:42;3.28;;;3.03;;
56201;SDS011;42117;50.360;3.508;2022-07-05T11:36:24;4.65;;;2.90;;
56201;SDS011;42117;50.360;3.508;2022-07-05T11:39:10;10.20;;;3.33;;
56201;SDS011;42117;50.360;3.508;2022-07-05T11:41:38;6.15;;;4.07;;
56201;SDS011;42117;50.360;3.508;2022-07-05T11:44:04;3.42;;;3.00;;
56201;SDS011;42117;50.360;3.508;2022-07-05T11:46:33;4.47;;;2.90;;
56201;SDS011;42117;50.360;3.508;2022-07-05T11:48:59;8.90;;;2.65;;
56201;SDS011;42117;50.360;3.508;2022-07-05T11:51:26;5.25;;;3.17;;
56201;SDS011;42117;50.360;3.508;2022-07-05T11:53:52;6.03;;;2.70;;
56201;SDS011;42117;50.360;3.508;2022-07-05T11:56:18;4.68;;;2.80;;
56201;SDS011;42117;50.360;3.508;2022-07-05T11:58:44;4.93;;;2.70;;
56201;SDS011;42117;50.360;3.508;2022-07-05T12:01:10;4.90;;;3.72;;
56201;SDS011;42117;50.360;3.508;2022-07-05T12:03:36;3.72;;;2.83;;
56201;SDS011;42117;50.360;3.508;2022-07-05T12:06:10;4.90;;;4.03;;
56201;SDS011;42117;50.360;3.508;2022-07-05T12:08:37;3.10;;;2.90;;
56201;SDS011;42117;50.360;3.508;2022-07-05T12:11:03;2.80;;;2.60;;
56201;SDS011;42117;50.360;3.508;2022-07-05T12:13:48;4.25;;;2.72;;
56201;SDS011;42117;50.360;3.508;2022-07-05T12:16:14;2.80;;;2.70;;
56201;SDS011;42117;50.360;3.508;2022-07-05T12:18:51;7.13;;;3.13;;
56201;SDS011;42117;50.360;3.508;2022-07-05T12:21:17;4.67;;;3.07;;
56201;SDS011;42117;50.360;3.508;2022-07-05T12:23:45;6.60;;;3.00;;
56201;SDS011;42117;50.360;3.508;2022-07-05T12:26:12;8.60;;;2.90;;
56201;SDS011;42117;50.360;3.508;2022-07-05T12:28:38;5.35;;;2.75;;
56201;SDS011;42117;50.360;3.508;2022-07-05T12:31:23;3.33;;;2.90;;
56201;SDS011;42117;50.360;3.508;2022-07-05T12:33:50;3.75;;;3.50;;
56201;SDS011;42117;50.360;3.508;2022-07-05T12:36:20;6.28;;;2.90;;
56201;SDS011;42117;50.360;3.508;2022-07-05T12:38:58;7.15;;;3.80;;
56201;SDS011;42117;50.360;3.508;2022-07-05T12:41:24;3.33;;;3.03;;
56201;SDS011;42117;50.360;3.508;2022-07-05T12:43:54;9.00;;;6.65;;
56201;SDS011;42117;50.360;3.508;2022-07-05T12:46:21;5.53;;;4.47;;
56201;SDS011;42117;50.360;3.508;2022-07-05T12:49:01;4.68;;;4.28;;
56201;SDS011;42117;50.360;3.508;2022-07-05T12:51:37;3.95;;;3.45;;
56201;SDS011;42117;50.360;3.508;2022-07-05T12:54:05;7.22;;;3.90;;
56201;SDS011;42117;50.360;3.508;2022-07-05T12:56:51;4.97;;;4.68;;
56201;SDS011;42117;50.360;3.508;2022-07-05T12:59:36;5.15;;;4.70;;
56201;SDS011;42117;50.360;3.508;2022-07-05T13:02:02;20.17;;;5.68;;
56201;SDS011;42117;50.360;3.508;2022-07-05T13:04:29;64.07;;;11.43;;
56201;SDS011;42117;50.360;3.508;2022-07-05T13:06:56;4.80;;;4.53;;
56201;SDS011;42117;50.360;3.508;2022-07-05T13:14:54;6.28;;;4.20;;
56201;SDS011;42117;50.360;3.508;2022-07-05T13:17:21;4.85;;;4.47;;
56201;SDS011;42117;50.360;3.508;2022-07-05T13:19:50;15.30;;;4.80;;
56201;SDS011;42117;50.360;3.508;2022-07-05T13:22:16;4.43;;;4.18;;
56201;SDS011;42117;50.360;3.508;2022-07-05T13:24:42;3.97;;;3.80;;
56201;SDS011;42117;50.360;3.508;2022-07-05T13:27:09;4.00;;;3.80;;
56201;SDS011;42117;50.360;3.508;2022-07-05T13:32:01;3.67;;;3.58;;
56201;SDS011;42117;50.360;3.508;2022-07-05T13:34:27;4.30;;;4.07;;
56201;SDS011;42117;50.360;3.508;2022-07-05T13:36:54;3.95;;;3.83;;
56201;SDS011;42117;50.360;3.508;2022-07-05T13:39:20;6.68;;;4.07;;
56201;SDS011;42117;50.360;3.508;2022-07-05T13:41:47;4.70;;;4.00;;
56201;SDS011;42117;50.360;3.508;2022-07-05T13:44:13;4.13;;;3.75;;
56201;SDS011;42117;50.360;3.508;2022-07-05T13:46:39;5.10;;;4.13;;
56201;SDS011;42117;50.360;3.508;2022-07-05T13:49:05;4.15;;;3.95;;
56201;SDS011;42117;50.360;3.508;2022-07-05T13:51:31;5.20;;;4.00;;
56201;SDS011;42117;50.360;3.508;2022-07-05T13:53:57;4.07;;;3.75;;
56201;SDS011;42117;50.360;3.508;2022-07-05T13:56:23;4.20;;;3.90;;
56201;SDS011;42117;50.360;3.508;2022-07-05T13:58:51;4.10;;;3.88;;
56201;SDS011;42117;50.360;3.508;2022-07-05T14:01:17;4.75;;;4.20;;
56201;SDS011;42117;50.360;3.508;2022-07-05T14:03:45;4.10;;;3.90;;
56201;SDS011;42117;50.360;3.508;2022-07-05T14:06:11;7.82;;;4.40;;
56201;SDS011;42117;50.360;3.508;2022-07-05T14:08:37;4.68;;;4.30;;
56201;SDS011;42117;50.360;3.508;2022-07-05T14:11:03;4.65;;;4.45;;
56201;SDS011;42117;50.360;3.508;2022-07-05T14:13:30;12.05;;;5.13;;
56201;SDS011;42117;50.360;3.508;2022-07-05T14:15:56;5.65;;;5.22;;
56201;SDS011;42117;50.360;3.508;2022-07-05T14:18:22;5.25;;;4.50;;
56201;SDS011;42117;50.360;3.508;2022-07-05T14:20:49;12.35;;;5.80;;
56201;SDS011;42117;50.360;3.508;2022-07-05T14:23:15;5.47;;;5.20;;
56201;SDS011;42117;50.360;3.508;2022-07-05T14:25:41;5.40;;;5.20;;
56201;SDS011;42117;50.360;3.508;2022-07-05T14:28:07;6.90;;;5.05;;
56201;SDS011;42117;50.360;3.508;2022-07-05T14:30:37;5.47;;;5.10;;
56201;SDS011;42117;50.360;3.508;2022-07-05T14:33:04;4.97;;;4.57;;
56201;SDS011;42117;50.360;3.508;2022-07-05T14:35:31;8.32;;;4.88;;
56201;SDS011;42117;50.360;3.508;2022-07-05T14:37:58;4.60;;;4.40;;
56201;SDS011;42117;50.360;3.508;2022-07-05T14:40:24;5.18;;;4.78;;
56201;SDS011;42117;50.360;3.508;2022-07-05T14:42:53;5.97;;;4.73;;
56201;SDS011;42117;50.360;3.508;2022-07-05T14:45:20;5.90;;;5.30;;
56201;SDS011;42117;50.360;3.508;2022-07-05T14:47:46;5.27;;;4.97;;
56201;SDS011;42117;50.360;3.508;2022-07-05T14:50:13;66.97;;;7.77;;
56201;SDS011;42117;50.360;3.508;2022-07-05T14:52:40;6.23;;;4.87;;
56201;SDS011;42117;50.360;3.508;2022-07-05T14:55:06;4.93;;;4.70;;
56201;SDS011;42117;50.360;3.508;2022-07-05T14:57:32;6.35;;;4.30;;
56201;SDS011;42117;50.360;3.508;2022-07-05T14:59:58;4.45;;;4.03;;
56201;SDS011;42117;50.360;3.508;2022-07-05T15:02:24;12.60;;;4.47;;
56201;SDS011;42117;50.360;3.508;2022-07-05T15:04:50;4.50;;;4.30;;
56201;SDS011;42117;50.360;3.508;2022-07-05T15:07:16;4.22;;;4.07;;
56201;SDS011;42117;50.360;3.508;2022-07-05T15:09:42;4.07;;;3.85;;
56201;SDS011;42117;50.360;3.508;2022-07-05T15:12:08;4.22;;;3.90;;